Airfield :
LOGIN :

Register | Disclaimer

   EN    FR    IT 

 










Legend :    VFR   Marginal VFR   IFR   Intensive IFR   Very Intensive IFR
Visi :
Ceiling :
>= 8 km
>= 3000ft
5 to 8 km
1000 to 3000 ft
1500m to 5 km
500 to 1000 ft
800 to 1500m
200 to 500 ft
< 800m
< 200 ft
Symbols :   Thunderstorms  Fog  Heavy snow  Heavy precipitations  Wind > 20 kt
SIGMETs :     Misc.  Thunderstorms  Icing  Turbulence  Mountain Waves  Volcanic Ashes







- Airport Elevation : 306 ft
- IATA code : EMA
- Download approach charts


EGNX - Nottingham East Midlands

CURRENT METAR :
  • 141450Z 22012KT 9999 SCT023 04/01 Q0985

EXPIRED METARs :
  • 141420Z 22015KT 9999 SCT025 05/01 Q0986
  • 141350Z 22015KT 9999 SCT025 05/01 Q0986
  • 141320Z 23016KT 9999 SCT023 05/01 Q0986
  • 141250Z 23015KT 9999 BKN021 05/02 Q0987
  • 141220Z 22015KT 9999 SCT020 04/01 Q0987

TAF TAF EGNX
Valid from the 14 at 12:00 until the 15 at 12:00 UTC


141102Z 1412/1512 22014KT 9999 FEW030
TEMPO 1415/1504 27017G27KT 6000 SHRA BKN012
PROB30
TEMPO 1501/1509 3000 RASN BKN005
BECMG 1501/1504 32012KT
TEMPO 1504/1512 32015G25KT 6000 SHRA BKN012
ATIS : +44 1332 852 852 (ext 3201)
No reported NOTAMs for that airfield.
2 SIGMETs reported for the London FIR (EGTT) :
 
Severe turbulence
EGTT SIGMET 04 VALID 141500/141900 EGRR
EGTT LONDON FIR SEV TURB FCST SW OF LINE N5000 W00119 - N5219 W00533 SFC/FL060 STNR WKN=
Severe turbulence
EGTT SIGMET 03 VALID 141100/141500 EGRR
EGTT LONDON FIR SEV TURB FCST SW OF LINE N5000 W00019 - N5153 W00620 SFC/FL060 STNR NC=



MET'MAP, your aeronautical weather chart ! - Copyright ORBIFLY December 2007 - Disclaimer

ORBIFLY MET'MAP TEAM :

Programming & Development : Alexandra Zaïnal
Concept & Development : Baudouin d'Aumeries
Co-Development & Prog : Marc-Olivier Méhu
Technical & hardware support : Manuel Goepfert

Contact : metmap@orbifly.com




SOURCES & CREDITS :

   NOAA